createdAt,value
2023-03-23T15:58:36.013Z,71.72
2023-03-23T16:01:27.035Z,72.06
2023-03-23T16:04:17.839Z,72.06
2023-03-23T16:07:07.159Z,72.59
2023-03-23T16:09:55.637Z,72.88
2023-03-23T16:12:45.506Z,72.90
2023-03-23T16:15:34.190Z,72.91
2023-03-23T16:18:23.722Z,75.63
2023-03-23T16:21:12.229Z,75.97
2023-03-23T16:24:01.426Z,76.30
2023-03-23T16:26:50.050Z,76.39
2023-03-23T16:29:59.891Z,77.07
2023-03-23T16:32:48.447Z,77.59
2023-03-23T16:35:37.594Z,78.65
2023-03-23T16:38:26.399Z,78.95
2023-03-23T16:41:14.917Z,78.79
2023-03-23T16:44:03.417Z,78.29
2023-03-23T16:46:53.314Z,79.02
2023-03-23T16:49:41.783Z,79.11
2023-03-23T16:52:30.345Z,79.25
2023-03-23T16:55:18.987Z,78.92
2023-03-23T17:00:59.551Z,78.90
2023-03-23T17:03:49.612Z,80.01
2023-03-23T17:06:38.376Z,79.99
2023-03-23T17:09:27.072Z,81.02
2023-03-23T17:12:15.503Z,82.01
2023-03-23T17:15:04.605Z,82.70
2023-03-23T17:17:54.021Z,83.39
2023-03-23T17:20:43.950Z,83.60
2023-03-23T17:23:32.438Z,84.04
2023-03-23T17:26:20.988Z,84.08
2023-03-23T17:29:09.476Z,84.05
2023-03-23T17:31:58.111Z,84.56
2023-03-23T17:34:46.821Z,84.89
2023-03-23T17:37:37.859Z,84.68
2023-03-23T17:40:26.632Z,84.70
2023-03-23T17:43:15.197Z,85.02
2023-03-23T17:46:03.711Z,83.75
2023-03-23T17:48:52.612Z,83.17
2023-03-23T17:51:41.599Z,84.08
2023-03-23T17:54:32.009Z,82.24
2023-03-23T17:57:20.742Z,82.77
2023-03-23T18:00:11.289Z,83.45
2023-03-23T18:02:59.884Z,84.37
2023-03-23T18:05:48.571Z,85.86
2023-03-23T18:08:37.613Z,86.65
2023-03-23T18:11:28.115Z,87.18
2023-03-23T18:14:16.647Z,87.66
2023-03-23T18:17:05.348Z,88.19
2023-03-23T18:19:53.789Z,87.21
2023-03-23T18:22:42.283Z,87.31
2023-03-23T18:25:30.806Z,87.36
2023-03-23T18:28:20.665Z,86.95
2023-03-23T18:31:11.366Z,86.72
2023-03-23T18:33:59.851Z,87.50
2023-03-23T18:36:48.337Z,87.48
2023-03-23T18:39:37.946Z,88.19
2023-03-23T18:42:26.755Z,88.80
2023-03-23T18:45:16.691Z,89.46
2023-03-23T18:48:05.682Z,90.07
2023-03-23T18:50:56.123Z,90.64
2023-03-23T18:53:44.652Z,90.69
2023-03-23T18:56:33.244Z,91.37
2023-03-23T18:59:23.971Z,92.01
2023-03-23T19:02:13.919Z,92.55
2023-03-23T19:05:02.502Z,92.74
2023-03-23T19:07:53.122Z,93.12
2023-03-23T19:10:43.085Z,93.45
2023-03-23T19:13:33.979Z,93.94
2023-03-23T19:16:22.975Z,94.18
2023-03-23T19:19:12.921Z,94.15
2023-03-23T19:22:01.427Z,94.87
2023-03-23T19:24:49.931Z,93.56
2023-03-23T19:28:05.784Z,89.10
2023-03-23T19:30:47.930Z,84.09
2023-03-23T19:33:36.784Z,77.87
2023-03-23T19:36:27.155Z,79.98
2023-03-23T19:39:15.849Z,75.42
2023-03-23T19:42:04.807Z,75.91
2023-03-23T19:44:53.443Z,70.32
2023-03-23T19:47:42.083Z,71.55
2023-03-23T19:50:31.678Z,72.87
2023-03-23T19:53:21.842Z,73.72
2023-03-23T19:56:13.464Z,74.47
2023-03-23T19:59:02.029Z,76.00
2023-03-23T20:01:50.550Z,79.05
2023-03-23T20:04:39.976Z,80.97
2023-03-23T20:07:28.701Z,82.78
2023-03-23T20:10:18.898Z,84.12
2023-03-23T20:13:08.146Z,84.12
2023-03-23T20:15:59.703Z,82.12
2023-03-23T20:18:50.317Z,81.20
2023-03-23T20:21:39.684Z,79.43
2023-03-23T20:24:28.374Z,78.85
2023-03-23T20:27:18.714Z,78.09
2023-03-23T20:30:08.565Z,77.97
2023-03-23T20:32:58.196Z,78.32
2023-03-23T20:35:46.879Z,79.72
2023-03-23T20:38:37.321Z,80.14
2023-03-23T20:41:26.180Z,80.90
2023-03-23T20:44:16.235Z,80.98
2023-03-23T20:47:06.057Z,81.91
2023-03-23T20:49:55.209Z,81.51
2023-03-23T20:52:44.708Z,81.27
2023-03-23T20:55:33.214Z,81.27
2023-03-23T20:58:22.520Z,79.94
2023-03-23T21:01:12.763Z,79.90
2023-03-23T21:04:02.932Z,79.26
2023-03-23T21:06:51.809Z,79.16
2023-03-23T21:09:40.792Z,79.63
2023-03-23T21:12:29.312Z,79.24
2023-03-23T21:15:17.955Z,79.38
2023-03-23T21:18:08.101Z,78.74
2023-03-23T21:20:57.208Z,77.17
2023-03-23T21:23:52.107Z,76.67
2023-03-23T21:26:44.420Z,77.10
2023-03-23T21:29:32.920Z,75.94
2023-03-23T21:32:22.811Z,75.85
2023-03-23T21:35:12.944Z,75.47
2023-03-23T21:38:01.485Z,75.64
2023-03-23T21:40:49.971Z,75.73
2023-03-23T21:43:40.646Z,76.62
2023-03-23T21:46:29.285Z,76.49
2023-03-23T21:49:17.784Z,76.90
2023-03-23T21:52:07.638Z,76.52
2023-03-23T21:54:58.790Z,77.74
2023-03-23T21:57:47.917Z,77.93
2023-03-23T22:00:36.428Z,76.90
2023-03-23T22:03:25.667Z,76.77
2023-03-23T22:06:17.037Z,77.56
2023-03-23T22:09:07.014Z,78.06
2023-03-23T22:11:55.728Z,77.78
2023-03-23T22:14:44.697Z,78.39
2023-03-23T22:17:33.293Z,78.48
2023-03-23T22:20:21.950Z,78.79
2023-03-23T22:23:10.874Z,79.11
2023-03-23T22:26:00.972Z,78.41
2023-03-23T22:28:51.081Z,77.33
2023-03-23T22:31:40.875Z,77.62
2023-03-23T22:34:29.644Z,76.85
2023-03-23T22:37:18.736Z,76.75
2023-03-23T22:40:09.630Z,77.06
2023-03-23T22:42:59.637Z,77.87
2023-03-23T22:45:50.709Z,78.40
2023-03-23T22:48:39.499Z,78.92
2023-03-23T22:51:28.243Z,79.58
2023-03-23T22:54:16.848Z,80.50
2023-03-23T22:57:05.526Z,81.16
2023-03-23T22:59:55.509Z,81.73
2023-03-23T23:02:44.445Z,82.55
2023-03-23T23:05:33.119Z,85.80
2023-03-23T23:08:21.957Z,85.43
2023-03-23T23:11:12.619Z,86.15
2023-03-23T23:14:01.219Z,86.31
2023-03-23T23:16:51.779Z,87.63
2023-03-23T23:19:40.534Z,89.38
2023-03-23T23:22:29.116Z,89.74
2023-03-23T23:25:17.780Z,90.99
2023-03-23T23:28:07.454Z,92.37
2023-03-23T23:30:56.326Z,97.02
2023-03-23T23:33:46.366Z,100.00
2023-03-23T23:36:34.959Z,100.00
2023-03-23T23:39:23.575Z,100.00
2023-03-23T23:42:12.622Z,100.00
2023-03-23T23:45:01.295Z,100.00
2023-03-23T23:47:50.343Z,100.00
2023-03-23T23:50:40.347Z,100.00
2023-03-23T23:53:28.882Z,100.00
2023-03-23T23:56:19.280Z,100.00
2023-03-23T23:59:07.865Z,100.00
